Time;durP1;ratioP1;P1;durP2;ratioP2;P2;SDS_P1;SDS_P2;PMS_P1;PMS_P2;Temp;Humidity;BMP_temperature;BMP_pressure;BME280_temperature;BME280_humidity;BME280_pressure;Samples;Min_cycle;Max_cycle;Signal;HPM_P1;HPM_P2
2023/04/05 00:01:24;;;;;;;6.55;5.35;;;;;;;2.96;76.91;101125.16;5014368;28;20414;-92
2023/04/05 00:03:57;;;;;;;9.18;5.53;;;;;;;3.09;76.08;101139.94;5037809;28;20041;-88
2023/04/05 00:06:28;;;;;;;7.15;5.13;;;;;;;3.16;75.94;101157.31;5006951;28;20048;-92
2023/04/05 00:09:00;;;;;;;7.88;5.38;;;;;;;3.12;76.66;101158.25;5010955;28;20042;-92
2023/04/05 00:11:33;;;;;;;10.57;6.85;;;;;;;3.13;76.69;101162.59;5006361;28;20057;-93
2023/04/05 00:14:01;;;;;;;8.90;5.82;;;;;;;3.11;77.80;101161.72;5010688;28;20049;-91
2023/04/05 00:16:30;;;;;;;8.98;5.72;;;;;;;3.09;77.29;101160.00;5008634;28;20383;-91
2023/04/05 00:18:57;;;;;;;10.32;5.97;;;;;;;2.97;78.24;101137.38;5007801;28;20072;-91
2023/04/05 00:21:23;;;;;;;8.20;5.68;;;;;;;3.01;78.85;101167.84;5017366;28;20056;-90
2023/04/05 00:23:54;;;;;;;8.73;6.47;;;;;;;2.77;79.52;101131.34;5013389;28;20376;-91
2023/04/05 00:26:20;;;;;;;10.15;6.00;;;;;;;2.55;79.61;101093.03;5016672;28;20367;-92
2023/04/05 00:28:48;;;;;;;7.57;6.03;;;;;;;2.91;80.70;101167.91;5027374;28;20104;-91
2023/04/05 00:31:16;;;;;;;11.25;6.40;;;;;;;2.63;81.38;101122.66;5030518;28;20069;-88
2023/04/05 00:33:46;;;;;;;10.27;6.53;;;;;;;2.86;82.06;101165.28;5050650;28;20101;-88
2023/04/05 00:36:18;;;;;;;9.98;6.15;;;;;;;2.83;82.66;101165.34;5035080;28;20045;-88
2023/04/05 00:38:46;;;;;;;12.07;6.82;;;;;;;2.77;84.21;101157.50;5031853;28;20046;-88
2023/04/05 00:41:15;;;;;;;9.23;6.15;;;;;;;2.70;85.27;101154.00;5013911;28;20052;-92
2023/04/05 00:43:43;;;;;;;12.40;6.70;;;;;;;2.64;86.82;101155.78;5028387;28;20108;-91
2023/04/05 00:46:10;;;;;;;8.90;6.95;;;;;;;2.59;87.38;101152.31;5016970;28;20050;-92
2023/04/05 00:48:38;;;;;;;9.98;6.50;;;;;;;2.54;88.20;101154.06;5036810;28;20045;-91
2023/04/05 00:51:10;;;;;;;9.23;6.38;;;;;;;2.40;89.76;101138.41;5021651;28;20109;-89
2023/04/05 00:53:39;;;;;;;10.82;6.40;;;;;;;2.36;91.22;101137.53;5021354;28;20029;-92
2023/04/05 00:56:12;;;;;;;9.18;6.50;;;;;;;2.22;91.99;101115.78;5014546;28;20044;-90
2023/04/05 00:58:41;;;;;;;12.13;7.10;;;;;;;2.33;92.62;101129.72;5015736;28;20045;-92
2023/04/05 01:01:21;;;;;;;10.43;6.57;;;;;;;2.43;93.54;101135.78;5026764;28;20110;-90
2023/04/05 01:04:01;;;;;;;11.63;6.78;;;;;;;2.42;93.27;101140.13;5028490;28;20072;-89
2023/04/05 01:06:46;;;;;;;9.70;6.38;;;;;;;2.36;92.63;101132.28;5027403;28;20038;-88
2023/04/05 01:09:28;;;;;;;10.43;6.53;;;;;;;2.30;92.93;101129.72;5038696;28;20033;-87
2023/04/05 01:12:00;;;;;;;9.98;6.97;;;;;;;2.26;94.38;101133.19;5049586;28;20065;-87
2023/04/05 01:14:27;;;;;;;9.50;6.75;;;;;;;2.16;94.87;101128.88;5022610;28;20034;-87
2023/04/05 01:16:59;;;;;;;8.82;6.93;;;;;;;2.14;96.06;101127.13;5047421;28;20053;-88
2023/04/05 01:19:28;;;;;;;10.10;7.25;;;;;;;2.08;96.53;101123.63;5030660;28;20048;-87
2023/04/05 01:22:36;;;;;;;8.98;7.28;;;;;;;2.00;96.79;101107.13;5074140;28;20063;-88
2023/04/05 01:25:27;;;;;;;10.63;6.60;;;;;;;2.19;95.07;101128.88;5055445;28;20031;-89
2023/04/05 01:28:22;;;;;;;10.48;6.85;;;;;;;2.21;95.03;101126.22;5048865;28;20092;-88
2023/04/05 01:31:05;;;;;;;12.80;6.72;;;;;;;2.06;95.97;101098.38;5038648;28;20045;-91
2023/04/05 01:33:37;;;;;;;10.20;7.15;;;;;;;2.17;95.01;101114.06;5032749;28;20573;-92
2023/04/05 01:36:06;;;;;;;8.80;6.63;;;;;;;1.95;94.82;101080.13;5041752;28;20048;-94
2023/04/05 01:38:38;;;;;;;12.15;7.18;;;;;;;1.97;96.13;101093.19;5037678;28;20041;-88
2023/04/05 01:41:05;;;;;;;10.68;7.03;;;;;;;2.01;95.93;101114.06;5047188;28;20041;-92
2023/04/05 01:43:32;;;;;;;10.00;6.85;;;;;;;1.97;96.93;101114.06;5038467;28;20560;-91
2023/04/05 01:45:59;;;;;;;9.35;7.28;;;;;;;1.73;96.79;101062.75;5029792;28;20497;-88
2023/04/05 01:48:27;;;;;;;10.35;6.90;;;;;;;1.83;95.27;101085.34;5029626;28;20055;-92
2023/04/05 01:50:54;;;;;;;7.93;6.05;;;;;;;1.90;94.88;101107.09;5031428;28;20037;-92
2023/04/05 01:53:22;;;;;;;11.02;6.90;;;;;;;1.49;94.68;101036.63;5018754;28;20067;-90
2023/04/05 01:56:04;;;;;;;6.85;6.00;;;;;;;1.86;94.05;101101.03;5035687;28;20037;-90
2023/04/05 01:58:34;;;;;;;11.45;6.10;;;;;;;1.74;93.93;101091.44;5024791;28;20053;-88
2023/04/05 02:01:03;;;;;;;9.93;6.18;;;;;;;1.80;94.83;101102.75;5054666;28;20048;-92
2023/04/05 02:03:30;;;;;;;8.13;6.03;;;;;;;1.81;94.84;101107.09;5048874;28;20060;-92
2023/04/05 02:05:57;;;;;;;7.75;6.28;;;;;;;1.79;95.68;101104.50;5035656;28;20365;-92
2023/04/05 02:08:24;;;;;;;11.70;6.88;;;;;;;1.66;96.31;101092.31;5031789;28;20053;-92
2023/04/05 02:10:52;;;;;;;9.68;5.97;;;;;;;1.67;96.34;101092.31;5042981;28;20052;-92
2023/04/05 02:13:26;;;;;;;10.50;6.22;;;;;;;1.68;95.57;101106.25;5019355;28;20052;-92
2023/04/05 02:15:54;;;;;;;11.80;6.32;;;;;;;1.53;95.94;101074.91;5038309;28;20079;-92
2023/04/05 02:18:21;;;;;;;10.55;6.65;;;;;;;1.60;96.19;101105.34;5038625;28;20452;-91
2023/04/05 02:20:50;;;;;;;9.48;6.15;;;;;;;1.55;96.71;101105.38;5032960;28;20124;-92
2023/04/05 02:23:18;;;;;;;10.30;6.35;;;;;;;1.34;97.14;101074.00;5030191;28;20448;-87
2023/04/05 02:25:45;;;;;;;7.88;5.55;;;;;;;1.35;96.85;101075.75;5047057;28;20055;-92
2023/04/05 02:28:12;;;;;;;6.90;5.63;;;;;;;1.21;96.44;101059.22;5026005;28;20128;-91
2023/04/05 02:30:40;;;;;;;10.27;6.28;;;;;;;1.40;96.54;101090.56;5016180;28;20128;-93
2023/04/05 02:33:09;;;;;;;8.38;6.35;;;;;;;1.48;97.18;101093.16;5035873;28;20117;-90
2023/04/05 02:35:35;;;;;;;8.52;6.00;;;;;;;1.37;96.97;101072.28;5057650;28;20045;-88
2023/04/05 02:38:03;;;;;;;9.25;5.75;;;;;;;1.27;96.31;101054.84;5065483;28;20085;-86
2023/04/05 02:40:31;;;;;;;8.57;6.10;;;;;;;1.37;96.33;101071.41;5038776;28;20052;-89
2023/04/05 02:42:57;;;;;;;8.63;6.18;;;;;;;1.48;96.87;101094.91;5048971;28;20084;-87
2023/04/05 02:45:27;;;;;;;9.63;5.75;;;;;;;1.43;97.00;101097.50;5056914;28;20223;-87
2023/04/05 02:47:54;;;;;;;8.20;6.05;;;;;;;1.28;97.87;101090.53;5063925;28;20064;-91
2023/04/05 02:50:22;;;;;;;7.93;5.80;;;;;;;1.30;99.26;101099.22;5042531;28;20036;-91
2023/04/05 02:52:50;;;;;;;9.60;5.97;;;;;;;1.23;99.64;101091.41;5069376;28;20067;-90
2023/04/05 02:55:19;;;;;;;8.00;5.70;;;;;;;1.13;99.34;101064.41;5062467;28;20052;-88
2023/04/05 02:57:46;;;;;;;8.23;5.72;;;;;;;1.18;98.15;101065.28;5054492;28;20097;-90
2023/04/05 03:00:13;;;;;;;11.38;5.50;;;;;;;1.37;97.20;101092.28;5039908;28;20076;-93
2023/04/05 03:02:40;;;;;;;10.35;6.45;;;;;;;0.97;96.61;101029.59;5026182;28;20097;-89
2023/04/05 03:05:08;;;;;;;7.53;5.72;;;;;;;1.25;97.31;101090.53;5044078;28;20037;-92
2023/04/05 03:07:36;;;;;;;7.35;5.65;;;;;;;1.19;97.08;101092.25;5041812;28;20037;-90
2023/04/05 03:10:07;;;;;;;11.45;5.75;;;;;;;1.19;97.79;101087.03;5042739;28;20037;-88
2023/04/05 03:12:33;;;;;;;9.25;5.80;;;;;;;1.25;98.47;101077.50;5024506;28;20494;-93
2023/04/05 03:15:00;;;;;;;7.13;5.63;;;;;;;1.31;99.30;101081.81;5029876;28;20061;-88
2023/04/05 03:17:27;;;;;;;7.82;5.78;;;;;;;1.34;98.27;101076.63;5038871;28;20056;-91
2023/04/05 03:19:54;;;;;;;9.38;6.13;;;;;;;1.36;98.16;101072.28;5019945;28;20488;-92
2023/04/05 03:22:21;;;;;;;9.00;6.22;;;;;;;1.38;98.57;101081.00;5039358;28;20053;-91
2023/04/05 03:24:51;;;;;;;7.90;5.60;;;;;;;1.30;98.99;101077.47;5058577;28;20190;-92
2023/04/05 03:27:18;;;;;;;7.78;6.18;;;;;;;1.13;100.00;101067.00;5021487;28;20445;-92
2023/04/05 03:29:46;;;;;;;8.27;5.88;;;;;;;1.03;100.00;101083.50;5039893;28;20033;-90
2023/04/05 03:32:13;;;;;;;9.52;6.55;;;;;;;0.94;100.00;101086.09;5036544;28;20049;-90
2023/04/05 03:34:39;;;;;;;9.07;6.95;;;;;;;0.72;100.00;101066.91;5024024;28;20049;-91
2023/04/05 03:37:07;;;;;;;10.80;6.63;;;;;;;0.79;100.00;101084.28;5048430;28;20097;-87
2023/04/05 03:39:34;;;;;;;9.40;6.18;;;;;;;0.76;100.00;101089.53;5043742;28;20025;-90
2023/04/05 03:42:01;;;;;;;7.28;5.82;;;;;;;0.81;100.00;101082.56;5043811;28;20029;-88
2023/04/05 03:44:28;;;;;;;8.55;6.03;;;;;;;0.81;100.00;101079.09;5044888;28;20041;-89
2023/04/05 03:46:55;;;;;;;10.40;6.75;;;;;;;0.78;100.00;101082.56;5038652;28;20068;-90
2023/04/05 03:49:21;;;;;;;8.05;6.45;;;;;;;0.79;100.00;101078.25;5045287;28;20045;-88
2023/04/05 03:51:49;;;;;;;11.27;6.40;;;;;;;0.81;100.00;101081.69;5054092;28;20033;-91
2023/04/05 03:54:16;;;;;;;10.95;6.88;;;;;;;0.68;100.00;101068.63;5041787;28;20045;-91
2023/04/05 03:56:42;;;;;;;7.65;6.32;;;;;;;0.71;100.00;101078.19;5032938;28;20469;-92
2023/04/05 03:59:10;;;;;;;10.60;6.82;;;;;;;0.49;100.00;101039.88;5040048;28;20080;-91
2023/04/05 04:01:37;;;;;;;10.63;6.97;;;;;;;0.48;100.00;101046.81;5031984;28;20040;-90
2023/04/05 04:04:05;;;;;;;9.23;6.82;;;;;;;0.28;100.00;101031.09;5032196;28;20047;-91
2023/04/05 04:06:33;;;;;;;11.43;6.85;;;;;;;0.49;100.00;101069.41;5023405;28;20106;-89
2023/04/05 04:09:00;;;;;;;9.95;6.57;;;;;;;0.22;100.00;101032.78;5058943;28;20048;-88
2023/04/05 04:11:27;;;;;;;11.95;7.10;;;;;;;0.38;100.00;101071.09;5043386;28;20042;-90
2023/04/05 04:13:54;;;;;;;11.88;7.45;;;;;;;0.34;100.00;101070.19;5049711;28;20037;-91
2023/04/05 04:16:20;;;;;;;10.70;7.10;;;;;;;0.34;100.00;101066.72;5037755;28;20079;-90
2023/04/05 04:18:48;;;;;;;9.73;7.03;;;;;;;0.29;100.00;101065.84;5073703;28;20045;-87
2023/04/05 04:21:16;;;;;;;9.73;7.03;;;;;;;0.32;100.00;101071.91;5033163;28;20066;-87
2023/04/05 04:23:44;;;;;;;12.30;7.28;;;;;;;0.31;100.00;101071.94;5059984;28;20116;-91
2023/04/05 04:26:13;;;;;;;13.35;7.60;;;;;;;0.23;100.00;101069.28;5065192;28;20045;-90
2023/04/05 04:28:42;;;;;;;9.80;7.50;;;;;;;0.13;100.00;101046.66;5051558;28;20092;-90
2023/04/05 04:31:12;;;;;;;11.25;7.05;;;;;;;0.26;100.00;101071.03;5037391;28;20048;-88
2023/04/05 04:33:50;;;;;;;10.35;6.70;;;;;;;0.16;100.00;101054.47;5040748;28;20045;-90
2023/04/05 04:36:25;;;;;;;10.07;7.47;;;;;;;0.31;100.00;101069.34;5050808;28;20060;-89
2023/04/05 04:38:52;;;;;;;9.77;6.80;;;;;;;0.28;100.00;101069.31;5041171;28;20045;-86
2023/04/05 04:41:21;;;;;;;10.82;7.45;;;;;;;0.25;100.00;101070.16;5036331;28;20041;-91
2023/04/05 04:43:48;;;;;;;10.02;7.20;;;;;;;0.23;100.00;101071.88;5035974;28;20052;-92
2023/04/05 04:46:15;;;;;;;9.60;7.20;;;;;;;0.22;100.00;101070.13;5043999;28;20109;-92
2023/04/05 04:48:42;;;;;;;10.70;7.30;;;;;;;0.16;100.00;101069.25;5048590;28;20125;-91
2023/04/05 04:51:11;;;;;;;11.93;7.30;;;;;;;0.12;100.00;101070.06;5051904;28;20745;-90
2023/04/05 04:53:40;;;;;;;11.93;7.68;;;;;;;0.18;100.00;101077.91;5057506;28;20109;-87
2023/04/05 04:56:07;;;;;;;10.75;7.30;;;;;;;-0.05;100.00;101036.13;5049941;28;20072;-86
2023/04/05 04:58:34;;;;;;;11.18;7.38;;;;;;;0.14;100.00;101076.16;5045376;28;20045;-92
2023/04/05 05:01:11;;;;;;;14.03;7.50;;;;;;;-0.45;100.00;100968.19;5043242;28;20048;-93
2023/04/05 05:03:40;;;;;;;10.10;7.63;;;;;;;0.13;100.00;101067.50;5039068;28;20072;-93
2023/04/05 05:06:21;;;;;;;12.45;7.45;;;;;;;0.14;100.00;101074.44;5058500;28;20059;-91
2023/04/05 05:08:48;;;;;;;12.38;7.90;;;;;;;0.16;100.00;101075.28;5040358;28;20108;-93
2023/04/05 05:11:14;;;;;;;10.77;7.75;;;;;;;-0.05;100.00;101051.75;5049765;28;20041;-92
2023/04/05 05:13:41;;;;;;;11.90;7.78;;;;;;;-0.12;100.00;101034.31;5027716;28;20061;-89
2023/04/05 05:16:17;;;;;;;11.65;7.63;;;;;;;-0.17;100.00;101023.91;5035660;28;20052;-91
2023/04/05 05:18:46;;;;;;;11.05;7.32;;;;;;;0.18;100.00;101083.13;5060143;28;20036;-91
2023/04/05 05:21:16;;;;;;;13.95;7.72;;;;;;;0.17;100.00;101076.16;5036812;28;20037;-93
2023/04/05 05:23:45;;;;;;;14.70;7.40;;;;;;;0.06;100.00;101046.59;5050098;28;20057;-91
2023/04/05 05:26:16;;;;;;;10.02;6.93;;;;;;;0.33;100.00;101080.59;5039507;28;20042;-90
2023/04/05 05:28:44;;;;;;;11.40;6.95;;;;;;;0.15;100.00;101044.06;5038086;28;20038;-92
2023/04/05 05:31:16;;;;;;;12.90;7.57;;;;;;;-0.30;100.00;100982.16;5039954;28;20045;-91
2023/04/05 05:33:46;;;;;;;10.02;7.22;;;;;;;0.34;100.00;101080.63;5068814;28;20033;-87
2023/04/05 05:36:19;;;;;;;12.98;7.80;;;;;;;0.38;100.00;101084.13;5070262;28;20169;-88
2023/04/05 05:38:46;;;;;;;12.57;6.93;;;;;;;0.03;100.00;101016.19;5063433;28;20092;-88
2023/04/05 05:41:14;;;;;;;14.30;7.15;;;;;;;-0.19;100.00;100967.50;5053774;28;20093;-90
2023/04/05 05:43:43;;;;;;;11.95;7.45;;;;;;;-0.12;100.00;100977.94;5042243;28;20052;-90
2023/04/05 05:46:26;;;;;;;11.05;7.30;;;;;;;0.57;100.00;101087.69;5045447;28;20041;-91
2023/04/05 05:48:57;;;;;;;8.82;6.97;;;;;;;0.56;100.00;101071.19;5054694;28;20095;-87
2023/04/05 05:51:25;;;;;;;11.05;7.60;;;;;;;0.20;100.00;101003.25;5054777;28;20056;-87
2023/04/05 05:53:52;;;;;;;10.93;7.47;;;;;;;0.68;100.00;101080.78;5050411;28;20064;-91
2023/04/05 05:56:21;;;;;;;10.40;7.10;;;;;;;0.60;100.00;101054.69;5059934;28;20045;-92
2023/04/05 05:58:48;;;;;;;11.15;7.30;;;;;;;0.76;100.00;101079.09;5035253;28;20477;-92
2023/04/05 06:01:16;;;;;;;9.98;7.30;;;;;;;0.88;100.00;101094.78;5036542;28;20482;-92
2023/04/05 06:03:44;;;;;;;11.18;6.63;;;;;;;0.81;100.00;101058.22;5031613;28;20049;-93
2023/04/05 06:06:12;;;;;;;13.07;7.22;;;;;;;0.91;100.00;101063.50;5034136;28;20422;-91
2023/04/05 06:08:41;;;;;;;9.88;7.47;;;;;;;1.00;100.00;101068.72;5050268;28;20494;-91
2023/04/05 06:11:17;;;;;;;11.30;7.75;;;;;;;1.14;100.00;101070.50;5038308;28;20047;-91
2023/04/05 06:14:00;;;;;;;11.25;7.25;;;;;;;1.38;100.00;101100.13;5036492;28;20501;-90
2023/04/05 06:16:29;;;;;;;13.52;7.65;;;;;;;1.22;97.84;101053.13;5013451;28;20042;-91
2023/04/05 06:19:03;;;;;;;12.90;7.93;;;;;;;1.44;95.68;101083.59;5034094;28;20464;-90
2023/04/05 06:21:31;;;;;;;13.05;8.13;;;;;;;1.52;94.77;101094.91;5036954;28;20186;-91
2023/04/05 06:23:58;;;;;;;10.15;7.28;;;;;;;1.56;93.13;101087.97;5023359;28;20098;-87
2023/04/05 06:26:26;;;;;;;12.10;7.45;;;;;;;1.51;92.04;101061.84;5021339;28;20420;-91
2023/04/05 06:28:54;;;;;;;11.48;7.20;;;;;;;1.73;88.67;101097.53;5036018;28;20071;-91
2023/04/05 06:31:27;;;;;;;11.65;7.65;;;;;;;1.41;86.54;101039.25;5023947;28;20052;-90
2023/04/05 06:33:55;;;;;;;11.60;7.63;;;;;;;1.70;86.27;101086.22;5023496;28;20075;-93
2023/04/05 06:36:24;;;;;;;9.70;6.78;;;;;;;1.51;84.96;101038.38;5029584;28;20057;-90
2023/04/05 06:39:04;;;;;;;9.13;7.20;;;;;;;1.95;84.27;101095.78;5032314;28;20092;-93
2023/04/05 06:41:33;;;;;;;9.02;6.78;;;;;;;1.60;82.92;101022.69;5054248;28;20025;-91
2023/04/05 06:44:09;;;;;;;11.43;8.02;;;;;;;1.78;84.03;101021.81;5021141;28;20037;-90
2023/04/05 06:46:44;;;;;;;10.15;6.80;;;;;;;2.47;82.54;101085.25;5049728;28;20086;-91
2023/04/05 06:49:18;;;;;;;9.18;6.60;;;;;;;2.75;77.78;101086.88;5055926;28;20099;-90
2023/04/05 06:51:46;;;;;;;10.02;6.72;;;;;;;2.48;77.27;100987.66;5034652;28;20033;-94
2023/04/05 06:54:14;;;;;;;7.95;5.82;;;;;;;3.11;74.18;101030.03;5038836;28;20052;-94
2023/04/05 06:56:42;;;;;;;11.48;6.40;;;;;;;3.46;72.30;101040.25;5042539;28;20071;-93
2023/04/05 06:59:32;;;;;;;8.60;6.35;;;;;;;3.98;68.47;101086.94;5036622;28;20041;-93
2023/04/05 07:02:00;;;;;;;11.90;6.00;;;;;;;4.25;63.90;101089.28;5045527;28;20045;-91
2023/04/05 07:04:35;;;;;;;9.77;6.03;;;;;;;4.21;63.86;101048.28;5066006;28;20033;-92
2023/04/05 07:07:30;;;;;;;9.05;5.40;;;;;;;4.56;60.79;101045.28;5047540;28;20033;-93
2023/04/05 07:10:11;;;;;;;9.75;5.70;;;;;;;4.92;62.86;101075.41;5045526;28;20378;-92
2023/04/05 07:12:39;;;;;;;8.60;5.50;;;;;;;5.07;61.25;101061.19;5037306;28;20048;-92
2023/04/05 07:15:11;;;;;;;13.05;5.63;;;;;;;5.29;60.84;101066.13;5041930;28;20045;-95
2023/04/05 07:17:43;;;;;;;7.60;5.70;;;;;;;5.63;60.62;101068.25;5021355;28;20034;-94
2023/04/05 07:20:13;;;;;;;8.23;5.55;;;;;;;5.71;60.25;101049.72;5016216;28;20061;-92
2023/04/05 07:22:39;;;;;;;7.53;5.07;;;;;;;5.94;57.54;101066.88;5012813;28;20552;-93
2023/04/05 07:25:12;;;;;;;7.93;5.63;;;;;;;6.19;56.40;101066.44;5005768;28;20119;-91
2023/04/05 07:27:57;;;;;;;6.88;5.30;;;;;;;6.32;56.93;101063.53;5043892;28;20268;-92
2023/04/05 07:30:27;;;;;;;7.40;5.30;;;;;;;5.88;54.60;100996.00;5011402;28;20060;-94
2023/04/05 07:32:57;;;;;;;7.38;4.93;;;;;;;6.11;54.28;101037.66;5050327;28;20107;-91
2023/04/05 07:35:28;;;;;;;8.32;4.50;;;;;;;6.34;52.09;101071.41;5038724;28;20065;-92
2023/04/05 07:40:49;;;;;;;6.88;4.65;;;;;;;6.46;52.15;100986.09;5012835;28;20034;-92
2023/04/05 07:43:20;;;;;;;9.73;5.00;;;;;;;7.08;49.55;101012.88;4989521;28;20071;-90
2023/04/05 07:46:11;;;;;;;7.47;4.82;;;;;;;7.36;49.93;101046.44;5000726;28;20045;-92
2023/04/05 07:48:39;;;;;;;6.70;4.72;;;;;;;7.31;48.42;101058.81;5013084;28;20042;-91
2023/04/05 07:51:10;;;;;;;7.43;5.15;;;;;;;7.00;49.88;101069.19;5001728;28;20299;-89
2023/04/05 07:53:38;;;;;;;9.25;5.13;;;;;;;6.81;49.69;101051.16;5001899;28;20026;-90
2023/04/05 07:56:13;;;;;;;5.45;4.45;;;;;;;6.69;49.18;101023.34;5061644;23;20351;-94
2023/04/05 07:58:41;;;;;;;7.68;4.68;;;;;;;7.01;49.09;101065.66;5058569;28;20156;-91
2023/04/05 08:01:30;;;;;;;7.75;5.38;;;;;;;7.04;49.67;101064.72;5058340;28;20037;-93
2023/04/05 08:04:03;;;;;;;8.20;5.20;;;;;;;6.88;49.44;101071.22;5052030;28;20059;-92
2023/04/05 08:06:35;;;;;;;7.00;4.78;;;;;;;6.84;50.33;101080.06;5065330;28;20032;-93
2023/04/05 08:09:07;;;;;;;7.30;4.88;;;;;;;6.90;49.68;101066.78;5047907;28;20048;-93
2023/04/05 08:11:36;;;;;;;6.57;4.72;;;;;;;6.33;48.75;100974.97;5055319;28;20064;-95
2023/04/05 08:14:14;;;;;;;8.07;4.80;;;;;;;7.07;48.81;101072.56;5061643;28;20053;-92
2023/04/05 08:16:45;;;;;;;8.30;4.90;;;;;;;7.11;49.01;101068.94;5056908;28;20025;-91
2023/04/05 08:19:12;;;;;;;6.88;5.10;;;;;;;7.23;47.80;101042.34;5059989;28;20036;-93
2023/04/05 08:21:41;;;;;;;7.93;5.38;;;;;;;7.17;48.79;101046.88;5062010;28;20043;-91
2023/04/05 08:24:20;;;;;;;5.95;4.15;;;;;;;7.04;47.95;101054.19;5079442;28;20067;-91
2023/04/05 08:26:59;;;;;;;5.63;4.10;;;;;;;6.64;47.33;101056.78;5069138;28;20051;-92
2023/04/05 08:29:31;;;;;;;7.50;4.45;;;;;;;6.49;48.47;101028.16;5045560;28;20017;-91
2023/04/05 08:32:03;;;;;;;7.03;3.97;;;;;;;6.31;48.72;100996.03;5046067;28;20088;-95
2023/04/05 08:34:36;;;;;;;7.45;4.15;;;;;;;7.03;47.51;101052.47;5058507;28;20055;-93
2023/04/05 08:37:06;;;;;;;6.63;4.30;;;;;;;7.28;46.88;101063.28;5056812;28;20048;-93
2023/04/05 08:39:42;;;;;;;6.28;3.75;;;;;;;7.05;46.39;100969.03;5050856;28;20037;-93
2023/04/05 08:42:18;;;;;;;9.00;4.00;;;;;;;7.79;44.78;101055.91;5048049;28;20108;-93
2023/04/05 08:44:51;;;;;;;6.38;3.72;;;;;;;7.73;43.47;101024.44;5070519;28;20056;-91
2023/04/05 08:47:22;;;;;;;7.53;4.10;;;;;;;8.05;43.14;101058.75;5044568;28;20041;-90
2023/04/05 08:49:53;;;;;;;;;;;;;;;8.19;43.35;101050.47;5035559;28;20044;-93
2023/04/05 08:52:27;;;;;;;10.68;4.60;;;;;;;7.68;43.88;101019.28;5048419;28;20349;-92
2023/04/05 08:54:56;;;;;;;6.20;4.40;;;;;;;7.20;45.93;101036.28;5046767;28;20041;-94
2023/04/05 08:57:29;;;;;;;6.80;4.53;;;;;;;7.10;46.59;101051.41;5064760;28;20067;-93
2023/04/05 09:00:02;;;;;;;6.25;4.38;;;;;;;7.03;46.61;101049.81;5082971;28;20420;-92
2023/04/05 09:02:39;;;;;;;4.97;3.80;;;;;;;7.12;43.82;101041.69;5041290;28;20469;-92
2023/04/05 09:05:09;;;;;;;4.75;3.97;;;;;;;7.30;44.87;101038.66;5061284;28;20033;-92
2023/04/05 09:07:39;;;;;;;5.85;4.65;;;;;;;7.20;44.30;101007.31;5064399;28;20070;-93
2023/04/05 09:10:13;;;;;;;6.47;4.50;;;;;;;7.30;44.37;101009.66;5043888;28;20075;-92
2023/04/05 09:12:40;;;;;;;8.90;4.47;;;;;;;7.42;44.90;101026.94;5063160;28;20071;-93
2023/04/05 09:15:10;;;;;;;7.60;4.30;;;;;;;7.29;43.91;101010.56;5074740;28;20377;-89
2023/04/05 09:17:42;;;;;;;5.38;4.28;;;;;;;7.20;45.15;101031.88;5061758;28;20425;-92
2023/04/05 09:20:14;;;;;;;7.40;4.85;;;;;;;7.28;44.75;101032.56;5055610;28;20088;-93
2023/04/05 09:22:44;;;;;;;5.15;4.65;;;;;;;7.28;41.97;101027.28;5063069;28;20044;-94
2023/04/05 09:25:38;;;;;;;6.80;4.50;;;;;;;7.23;42.76;101018.66;5064752;28;20048;-91
2023/04/05 09:28:08;;;;;;;6.55;4.47;;;;;;;7.38;44.09;101033.22;5077265;28;20044;-91
2023/04/05 09:30:36;;;;;;;6.90;4.40;;;;;;;7.42;43.95;101002.38;5090526;28;20036;-91
2023/04/05 09:33:09;;;;;;;6.40;4.55;;;;;;;7.56;42.67;101026.63;5092345;28;20032;-92
2023/04/05 09:35:44;;;;;;;7.13;4.47;;;;;;;7.34;42.69;101029.78;5058924;28;20043;-92
2023/04/05 09:38:15;;;;;;;12.68;4.20;;;;;;;7.36;42.41;101027.97;5060727;28;20114;-91
2023/04/05 09:40:45;;;;;;;4.75;4.20;;;;;;;7.39;42.70;101025.28;5041237;28;20428;-93
2023/04/05 09:43:40;;;;;;;5.65;4.10;;;;;;;7.34;41.66;101027.16;5057247;28;20048;-92
2023/04/05 09:46:36;;;;;;;5.63;4.25;;;;;;;7.42;41.86;101026.09;5059787;28;20048;-91
2023/04/05 09:49:32;;;;;;;6.45;4.40;;;;;;;7.46;41.08;101025.13;5071049;28;20037;-93
2023/04/05 09:52:00;;;;;;;6.97;4.78;;;;;;;7.49;41.27;101009.25;5053873;28;20040;-92
2023/04/05 09:54:40;;;;;;;8.23;4.20;;;;;;;7.43;40.23;100996.19;5078581;28;20078;-91
2023/04/05 09:57:10;;;;;;;4.32;3.50;;;;;;;7.56;40.81;101014.31;5056149;28;20052;-93
2023/04/05 09:59:41;;;;;;;6.07;4.10;;;;;;;7.31;41.64;100971.88;5045995;28;20059;-92
2023/04/05 10:02:11;;;;;;;5.00;4.25;;;;;;;7.64;39.67;101020.25;5047951;28;20104;-91
2023/04/05 10:04:53;;;;;;;4.85;4.00;;;;;;;7.32;40.31;100954.31;5049761;28;20045;-94
2023/04/05 10:07:22;;;;;;;6.85;4.40;;;;;;;7.89;40.66;101019.63;5040658;28;20144;-92
2023/04/05 10:09:56;;;;;;;6.03;3.83;;;;;;;7.63;39.07;100991.31;5054594;28;20095;-89
2023/04/05 10:12:40;;;;;;;4.90;4.00;;;;;;;7.89;39.51;101020.50;5059820;28;20485;-93
2023/04/05 10:15:13;;;;;;;5.93;3.97;;;;;;;7.98;38.63;101015.00;5041991;28;20041;-90
2023/04/05 10:17:52;;;;;;;5.07;4.07;;;;;;;8.11;38.56;101004.97;5041878;28;20370;-92
2023/04/05 10:20:49;;;;;;;10.30;4.43;;;;;;;7.93;39.15;100973.81;5056089;28;20041;-93
2023/04/05 10:23:29;;;;;;;5.82;4.45;;;;;;;8.09;39.32;101006.78;5046129;28;20136;-92
2023/04/05 10:26:11;;;;;;;5.93;4.10;;;;;;;8.15;39.28;101008.41;5048139;28;20128;-92
2023/04/05 10:28:49;;;;;;;4.63;3.60;;;;;;;8.20;38.75;100988.00;5061324;28;20033;-91
2023/04/05 10:32:02;;;;;;;4.78;3.50;;;;;;;8.20;37.62;100982.75;5074959;28;20033;-92
2023/04/05 10:35:04;;;;;;;5.93;4.07;;;;;;;8.44;38.17;100990.00;5059635;28;20039;-93
2023/04/05 10:37:55;;;;;;;5.90;3.45;;;;;;;8.42;36.72;100995.34;5053338;28;20041;-93
2023/04/05 10:40:31;;;;;;;6.75;3.90;;;;;;;8.49;37.63;100995.16;5061453;28;20049;-92
2023/04/05 10:43:15;;;;;;;9.70;3.97;;;;;;;8.56;37.52;100991.44;5055709;28;20033;-90
2023/04/05 10:45:53;;;;;;;4.60;3.70;;;;;;;8.59;36.12;100986.94;5076077;28;20025;-90
2023/04/05 10:48:26;;;;;;;3.92;3.30;;;;;;;8.63;36.23;100988.56;5073219;28;20041;-91
2023/04/05 10:50:54;;;;;;;4.82;3.40;;;;;;;8.71;35.84;100981.28;5052903;28;20041;-91
2023/04/05 10:53:31;;;;;;;5.45;3.80;;;;;;;8.86;35.40;100974.66;5070547;28;20043;-90
2023/04/05 10:56:01;;;;;;;5.05;4.05;;;;;;;9.07;34.92;100983.72;5071252;28;20037;-90
2023/04/05 10:58:29;;;;;;;6.07;3.90;;;;;;;9.00;34.93;100967.16;5044818;28;20049;-91
2023/04/05 11:01:00;;;;;;;6.72;4.40;;;;;;;9.02;35.67;100975.06;5042680;28;20037;-90
2023/04/05 11:03:50;;;;;;;4.60;3.88;;;;;;;8.65;35.07;100965.63;5027034;28;20149;-90
2023/04/05 11:06:34;;;;;;;3.83;3.40;;;;;;;8.80;34.66;100974.88;5044857;28;20021;-91
2023/04/05 11:09:19;;;;;;;4.70;3.45;;;;;;;8.99;34.57;100983.06;5049477;28;20041;-92
2023/04/05 11:11:58;;;;;;;4.80;3.50;;;;;;;8.96;34.25;100970.84;5055352;28;20101;-92
2023/04/05 11:14:34;;;;;;;5.15;3.70;;;;;;;8.86;33.28;100976.44;5057786;28;20042;-91
2023/04/05 11:17:03;;;;;;;5.38;3.78;;;;;;;8.46;35.02;100953.03;5059229;28;20037;-90
2023/04/05 11:19:42;;;;;;;6.22;3.85;;;;;;;8.61;36.17;100969.28;5029303;28;20039;-93
2023/04/05 11:22:23;;;;;;;5.90;3.28;;;;;;;8.58;33.91;100958.81;5043237;28;20045;-91
2023/04/05 11:25:01;;;;;;;4.15;3.10;;;;;;;8.54;34.04;100922.84;5030633;28;20045;-93
2023/04/05 11:27:39;;;;;;;6.10;3.50;;;;;;;8.93;34.27;100964.78;5040548;28;20041;-92
2023/04/05 11:30:07;;;;;;;4.75;3.75;;;;;;;9.11;34.99;100956.28;5047567;28;20053;-92
2023/04/05 11:32:47;;;;;;;5.32;3.88;;;;;;;9.20;35.34;100924.28;5060532;28;20059;-92
2023/04/05 11:35:21;;;;;;;4.53;3.55;;;;;;;9.37;33.92;100940.44;5060285;28;20047;-91
2023/04/05 11:37:59;;;;;;;7.28;3.60;;;;;;;9.32;33.89;100937.06;5048420;28;20048;-91
2023/04/05 11:40:34;;;;;;;5.30;3.75;;;;;;;9.14;34.49;100948.25;5038609;28;20042;-90
2023/04/05 11:43:15;;;;;;;5.28;4.00;;;;;;;9.25;34.66;100938.22;5040161;28;20128;-93
2023/04/05 11:45:42;;;;;;;4.80;3.55;;;;;;;9.37;34.49;100945.72;5063707;28;20034;-91
2023/04/05 11:48:25;;;;;;;5.30;3.72;;;;;;;9.32;34.85;100931.78;5036912;28;20053;-91
2023/04/05 11:50:56;;;;;;;5.82;4.10;;;;;;;9.52;35.13;100922.31;5063080;28;20106;-89
2023/04/05 11:53:26;;;;;;;4.97;3.95;;;;;;;9.77;33.66;100928.47;5048839;28;20045;-90
2023/04/05 11:55:55;;;;;;;5.55;3.60;;;;;;;9.92;33.20;100924.44;5042315;28;20037;-91